Date,TemperatureHighF,TemperatureAvgF,TemperatureLowF,DewpointHighF,DewpointAvgF,DewpointLowF,HumidityHigh,HumidityAvg,HumidityLow,PressureMaxIn,PressureMinIn,WindSpeedMaxMPH,WindSpeedAvgMPH,GustSpeedMaxMPH,PrecipitationSumIn
2013-6-1,70,59,50,53,50,46,97,75,50,30.26,30.10,2,0,6,0.00
2013-6-2,80,62,50,54,50,47,99,69,37,30.10,30.03,3,0,9,0.00
2013-6-3,80,62,47,54,50,44,100,67,36,30.12,30.07,2,0,9,0.00
2013-6-4,85,65,47,55,50,44,100,64,32,30.16,30.02,2,0,7,0.00
2013-6-5,82,70,56,57,54,50,82,59,42,30.09,30.02,2,0,8,0.00
2013-6-6,83,66,52,57,52,40,100,63,34,30.07,29.98,2,0,10,0.00
2013-6-7,76,65,57,52,48,40,77,56,38,30.12,29.99,7,2,17,0.01
2013-6-8,78,62,51,52,48,42,76,60,40,30.15,30.11,3,0,10,0.00
2013-6-9,72,60,50,51,47,43,87,64,39,30.11,30.01,2,0,9,0.00
2013-6-10,81,62,45,52,45,41,92,59,33,30.04,29.86,3,1,12,0.00
2013-6-11,75,60,53,46,44,42,70,56,36,30.08,29.91,5,1,13,0.00
2013-6-12,68,57,50,55,50,44,91,76,62,30.15,30.08,2,0,7,0.09
2013-6-13,78,60,45,54,49,42,100,70,39,30.19,30.14,3,0,10,0.02
2013-6-14,76,63,53,53,49,45,77,61,43,30.20,30.09,3,0,10,0.00
2013-6-15,81,63,46,56,50,42,100,67,36,30.09,29.93,5,0,7,0.00
2013-6-16,82,66,51,57,51,45,97,64,37,30.05,29.98,5,1,10,0.00
2013-6-17,84,66,51,55,50,46,86,61,35,30.06,29.90,3,0,10,0.09
2013-6-18,77,62,53,56,53,48,95,74,43,29.96,29.91,2,0,9,0.05
2013-6-19,72,60,49,60,50,46,98,73,45,29.98,29.90,5,1,13,0.22
2013-6-20,61,58,56,54,49,46,85,74,64,30.08,29.91,6,2,20,0.13
2013-6-21,74,62,54,56,52,49,94,73,50,30.16,30.08,2,0,7,0.01
2013-6-22,83,65,50,57,52,47,100,67,33,30.13,29.89,5,0,11,0.00
2013-6-23,72,63,54,60,55,49,93,76,63,29.89,29.62,3,0,6,0.06
2013-6-24,68,62,58,61,58,54,99,86,66,29.69,29.55,3,0,12,0.35
2013-6-25,73,63,57,60,57,55,98,83,60,29.80,29.66,3,0,7,0.13
2013-6-26,74,63,57,60,57,53,98,81,59,30.08,29.80,3,0,9,0.09
2013-6-27,70,62,58,62,60,57,99,90,75,30.22,30.05,1,0,4,0.14
2013-6-28,84,70,59,63,61,58,100,76,44,30.22,30.06,1,0,7,0.00
2013-6-29,88,73,61,65,61,58,100,70,40,30.10,29.99,3,0,9,0.00
2013-6-30,98,76,59,64,59,52,100,63,23,30.02,29.85,2,0,8,0.00